createdAt,value
2022-08-31T00:00:00.266Z,1.3
2022-08-31T00:05:00.433Z,0.6
2022-08-31T00:10:00.247Z,0.9
2022-08-31T00:15:00.290Z,1.9
2022-08-31T00:20:00.269Z,0.9
2022-08-31T00:25:00.267Z,1.3
2022-08-31T00:30:00.318Z,2.0
2022-08-31T00:35:00.257Z,2.0
2022-08-31T00:40:00.448Z,3.0
2022-08-31T00:45:00.281Z,2.3
2022-08-31T00:50:00.289Z,1.9
2022-08-31T00:55:00.235Z,2.6
2022-08-31T01:00:00.273Z,2.8
2022-08-31T01:05:00.296Z,2.7
2022-08-31T01:10:00.317Z,1.6
2022-08-31T01:15:00.257Z,1.8
2022-08-31T01:20:00.285Z,2.1
2022-08-31T01:25:00.242Z,1.3
2022-08-31T01:30:00.258Z,2.0
2022-08-31T01:35:00.321Z,0.9
2022-08-31T01:40:00.509Z,1.2
2022-08-31T01:45:00.289Z,1.8
2022-08-31T01:50:00.248Z,1.6
2022-08-31T01:55:00.276Z,2.9
2022-08-31T02:00:00.370Z,1.5
2022-08-31T02:05:00.277Z,1.8
2022-08-31T02:10:00.265Z,1.1
2022-08-31T02:15:00.343Z,1.4
2022-08-31T02:20:00.246Z,1.9
2022-08-31T02:25:00.269Z,1.8
2022-08-31T02:30:00.256Z,1.3
2022-08-31T02:35:00.262Z,2.0
2022-08-31T02:40:00.444Z,2.4
2022-08-31T02:45:00.263Z,3.1
2022-08-31T02:50:00.324Z,2.7
2022-08-31T02:55:00.269Z,4.0
2022-08-31T03:00:00.265Z,3.0
2022-08-31T03:05:00.275Z,2.8
2022-08-31T03:10:00.249Z,2.0
2022-08-31T03:15:00.267Z,2.9
2022-08-31T03:20:00.305Z,2.5
2022-08-31T03:25:00.261Z,2.2
2022-08-31T03:30:00.326Z,0.9
2022-08-31T03:35:00.276Z,0.7
2022-08-31T03:40:00.458Z,0.2
2022-08-31T03:45:00.289Z,0.1
2022-08-31T03:50:00.346Z,0.0
2022-08-31T03:55:00.274Z,0.0
2022-08-31T04:00:00.315Z,0.0
2022-08-31T04:05:00.281Z,0.2
2022-08-31T04:10:00.299Z,0.1
2022-08-31T04:15:00.267Z,0.1
2022-08-31T04:20:00.322Z,0.7
2022-08-31T04:25:00.273Z,1.5
2022-08-31T04:30:00.266Z,1.3
2022-08-31T04:35:00.340Z,1.0
2022-08-31T04:40:00.283Z,1.7
2022-08-31T04:45:00.276Z,1.9
2022-08-31T04:50:00.280Z,2.6
2022-08-31T04:55:00.325Z,2.8
2022-08-31T05:00:00.315Z,2.3
2022-08-31T05:05:00.290Z,2.9
2022-08-31T05:10:00.263Z,3.6
2022-08-31T05:15:00.284Z,2.3
2022-08-31T05:20:00.288Z,2.1
2022-08-31T05:25:00.258Z,1.3
2022-08-31T05:30:00.330Z,2.7
2022-08-31T05:35:00.272Z,2.3
2022-08-31T05:40:00.428Z,1.3
2022-08-31T05:45:00.265Z,2.5
2022-08-31T05:50:00.236Z,1.9
2022-08-31T05:55:00.273Z,2.4
2022-08-31T06:00:00.361Z,2.4
2022-08-31T06:05:00.321Z,2.2
2022-08-31T06:10:00.236Z,3.4
2022-08-31T06:15:00.279Z,6.5
2022-08-31T06:20:00.273Z,4.5
2022-08-31T06:25:00.298Z,4.0
2022-08-31T06:30:00.313Z,4.0
2022-08-31T06:35:00.310Z,4.4
2022-08-31T06:40:00.456Z,3.4
2022-08-31T06:45:00.346Z,6.6
2022-08-31T06:50:00.267Z,5.7
2022-08-31T06:55:00.269Z,5.2
2022-08-31T07:00:00.375Z,4.5
2022-08-31T07:05:00.265Z,4.1
2022-08-31T07:10:00.380Z,6.6
2022-08-31T07:15:01.172Z,9.2
2022-08-31T07:20:00.260Z,4.2
2022-08-31T07:25:00.280Z,7.8
2022-08-31T07:30:00.566Z,7.7
2022-08-31T07:35:01.207Z,10.3
2022-08-31T07:40:07.390Z,9.0
2022-08-31T07:45:01.887Z,9.7
2022-08-31T07:50:00.396Z,7.0
2022-08-31T07:55:00.265Z,11.0
2022-08-31T08:00:00.306Z,9.9
2022-08-31T08:05:00.598Z,10.1
2022-08-31T08:10:00.284Z,7.5
2022-08-31T08:15:00.280Z,10.5
2022-08-31T08:20:00.318Z,6.8
2022-08-31T08:25:00.271Z,9.5
2022-08-31T08:30:00.393Z,12.9
2022-08-31T08:35:00.245Z,9.9
2022-08-31T08:40:00.436Z,10.4
2022-08-31T08:45:00.288Z,10.3
2022-08-31T08:50:00.289Z,7.0
2022-08-31T08:55:00.268Z,9.0
2022-08-31T09:00:00.254Z,10.8
2022-08-31T09:05:00.280Z,7.2
2022-08-31T09:10:00.294Z,8.6
2022-08-31T09:15:00.276Z,7.4
2022-08-31T09:20:00.658Z,7.7
2022-08-31T09:25:00.283Z,6.2
2022-08-31T09:30:00.257Z,10.0
2022-08-31T09:35:00.272Z,7.5
2022-08-31T09:40:07.378Z,9.9
2022-08-31T09:45:00.283Z,8.9
2022-08-31T09:50:00.297Z,8.1
2022-08-31T09:55:00.248Z,8.2
2022-08-31T10:00:00.269Z,7.6
2022-08-31T10:05:00.404Z,9.4
2022-08-31T10:10:00.331Z,8.8
2022-08-31T10:15:00.376Z,8.2
2022-08-31T10:20:00.361Z,5.5
2022-08-31T10:25:00.327Z,5.9
2022-08-31T10:30:00.300Z,7.3
2022-08-31T10:35:00.335Z,6.6
2022-08-31T10:40:00.477Z,4.1
2022-08-31T10:45:00.406Z,8.4
2022-08-31T10:50:00.350Z,12.9
2022-08-31T10:55:00.332Z,4.6
2022-08-31T11:00:00.310Z,5.8
2022-08-31T11:05:00.462Z,7.5
2022-08-31T11:10:00.274Z,7.3
2022-08-31T11:15:00.304Z,11.8
2022-08-31T11:20:00.311Z,10.4
2022-08-31T11:25:00.251Z,9.6
2022-08-31T11:30:00.261Z,7.8
2022-08-31T11:35:00.276Z,10.8
2022-08-31T11:40:00.506Z,11.1
2022-08-31T11:45:00.308Z,9.9
2022-08-31T11:50:00.354Z,7.7
2022-08-31T11:55:00.287Z,5.7
2022-08-31T12:00:00.324Z,6.5
2022-08-31T12:05:00.639Z,12.4
2022-08-31T12:10:00.263Z,11.9
2022-08-31T12:15:00.316Z,7.2
2022-08-31T12:20:02.376Z,6.2
2022-08-31T12:25:00.280Z,6.0
2022-08-31T12:30:00.262Z,8.6
2022-08-31T12:35:00.268Z,7.9
2022-08-31T12:40:00.434Z,9.6
2022-08-31T12:45:00.285Z,6.5
2022-08-31T12:50:00.299Z,11.8
2022-08-31T12:55:00.288Z,10.7
2022-08-31T13:00:02.338Z,9.2
2022-08-31T13:05:00.324Z,9.6
2022-08-31T13:10:00.277Z,10.2
2022-08-31T13:15:00.303Z,6.0
2022-08-31T13:20:03.096Z,9.4
2022-08-31T13:25:00.353Z,8.9
2022-08-31T13:30:00.260Z,11.0
2022-08-31T13:35:00.299Z,10.3
2022-08-31T13:40:00.427Z,9.1
2022-08-31T13:45:00.448Z,11.6
2022-08-31T13:50:00.330Z,7.0
2022-08-31T13:55:00.299Z,8.7
2022-08-31T14:00:00.275Z,6.1
2022-08-31T14:05:00.381Z,1.8
2022-08-31T14:10:00.476Z,10.4
2022-08-31T14:15:00.541Z,5.6
2022-08-31T14:20:00.468Z,7.0
2022-08-31T14:25:00.275Z,3.3
2022-08-31T14:30:00.689Z,4.9
2022-08-31T14:35:00.237Z,7.3
2022-08-31T14:40:08.025Z,7.0
2022-08-31T14:45:00.253Z,7.8
2022-08-31T14:50:00.232Z,3.5
2022-08-31T14:55:00.305Z,4.7
2022-08-31T15:00:00.358Z,7.6
2022-08-31T15:05:00.316Z,7.7
2022-08-31T15:10:00.265Z,5.7
2022-08-31T15:15:00.340Z,9.7
2022-08-31T15:20:00.338Z,7.4
2022-08-31T15:25:00.286Z,7.7
2022-08-31T15:30:00.340Z,5.3
2022-08-31T15:35:00.336Z,4.1
2022-08-31T15:40:00.573Z,7.2
2022-08-31T15:45:00.327Z,5.5
2022-08-31T15:50:00.444Z,5.1
2022-08-31T15:55:00.364Z,3.4
2022-08-31T16:00:00.446Z,2.8
2022-08-31T16:05:00.328Z,5.7
2022-08-31T16:10:00.378Z,6.0
2022-08-31T16:15:00.466Z,8.6
2022-08-31T16:20:02.309Z,8.5
2022-08-31T16:25:00.370Z,8.2
2022-08-31T16:30:00.421Z,9.2
2022-08-31T16:35:00.352Z,6.3
2022-08-31T16:40:00.641Z,7.7
2022-08-31T16:45:02.963Z,4.0
2022-08-31T16:50:00.339Z,4.9
2022-08-31T16:55:00.368Z,7.3
2022-08-31T17:00:00.369Z,10.3
2022-08-31T17:05:00.376Z,7.1
2022-08-31T17:10:00.336Z,5.6
2022-08-31T17:15:00.454Z,6.6
2022-08-31T17:20:00.938Z,4.5
2022-08-31T17:25:00.357Z,4.3
2022-08-31T17:30:00.499Z,6.0
2022-08-31T17:35:00.366Z,7.0
2022-08-31T17:40:00.797Z,6.7
2022-08-31T17:45:00.452Z,6.5
2022-08-31T17:50:00.343Z,7.0
2022-08-31T17:55:00.375Z,6.1
2022-08-31T18:00:00.348Z,3.8
2022-08-31T18:05:00.674Z,5.4
2022-08-31T18:10:00.348Z,4.1
2022-08-31T18:15:00.405Z,3.8
2022-08-31T18:20:00.360Z,3.4
2022-08-31T18:25:00.365Z,2.5
2022-08-31T18:30:00.386Z,4.4
2022-08-31T18:35:00.442Z,4.4
2022-08-31T18:40:06.566Z,4.4
2022-08-31T18:45:00.340Z,4.4
2022-08-31T18:50:00.343Z,4.4
2022-08-31T18:55:00.343Z,4.4
2022-08-31T19:00:00.354Z,4.4
2022-08-31T19:05:00.327Z,4.4
2022-08-31T19:10:00.319Z,4.4
2022-08-31T19:15:00.350Z,4.4
2022-08-31T19:20:03.929Z,4.4
2022-08-31T19:25:00.358Z,4.4
2022-08-31T19:30:00.369Z,4.4
2022-08-31T19:35:03.593Z,4.4
2022-08-31T19:40:00.356Z,4.4
2022-08-31T19:45:25.397Z,4.4
2022-08-31T19:50:00.335Z,4.4
2022-08-31T19:55:00.416Z,4.4
2022-08-31T20:00:00.383Z,4.4
2022-08-31T20:05:00.343Z,4.4
2022-08-31T20:10:00.309Z,4.4
2022-08-31T20:20:00.429Z,3.1
2022-08-31T20:25:00.189Z,2.9
2022-08-31T20:30:00.399Z,3.2
2022-08-31T20:35:00.181Z,2.3
2022-08-31T20:40:00.560Z,1.9
2022-08-31T20:45:00.193Z,2.4
2022-08-31T20:50:00.314Z,3.2
2022-08-31T20:55:01.483Z,2.2
2022-08-31T21:00:00.428Z,2.1
2022-08-31T21:05:36.957Z,2.6
2022-08-31T21:10:00.349Z,2.8
2022-08-31T21:15:00.282Z,2.8
2022-08-31T21:20:00.308Z,2.7
2022-08-31T21:25:00.158Z,3.1
2022-08-31T21:30:00.326Z,4.0
2022-08-31T21:35:00.176Z,3.5
2022-08-31T21:40:01.776Z,4.6
2022-08-31T21:45:00.143Z,3.2
2022-08-31T21:50:00.328Z,3.9
2022-08-31T21:55:00.149Z,3.2
2022-08-31T22:00:00.385Z,3.8
2022-08-31T22:05:00.136Z,3.3
2022-08-31T22:10:00.295Z,2.8
2022-08-31T22:15:00.158Z,3.9
2022-08-31T22:20:00.348Z,3.1
2022-08-31T22:25:00.578Z,1.5
2022-08-31T22:30:00.505Z,2.0
2022-08-31T22:35:00.155Z,2.9
2022-08-31T22:40:00.656Z,3.1
2022-08-31T22:45:00.188Z,2.9
2022-08-31T22:50:00.334Z,4.3
2022-08-31T22:55:00.205Z,3.9
2022-08-31T23:00:00.333Z,2.9
2022-08-31T23:05:00.165Z,2.7
2022-08-31T23:10:00.303Z,3.7
2022-08-31T23:15:00.185Z,3.2
2022-08-31T23:20:00.331Z,3.7
2022-08-31T23:25:00.199Z,4.7
2022-08-31T23:30:00.920Z,2.8
2022-08-31T23:35:00.153Z,4.3
2022-08-31T23:40:00.410Z,4.7
2022-08-31T23:45:00.219Z,4.8
2022-08-31T23:50:02.369Z,3.3
2022-08-31T23:55:00.156Z,3.7
